Time;durP1;ratioP1;P1;durP2;ratioP2;P2;SDS_P1;SDS_P2;PMS_P1;PMS_P2;Temp;Humidity;BMP_temperature;BMP_pressure;BME280_temperature;BME280_humidity;BME280_pressure;Samples;Min_cycle;Max_cycle;Signal;HPM_P1;HPM_P2
2021/08/11 00:02:24;;;;;;;10.43;5.80;;;17.60;62.40;;;16.74;67.46;98172.03;5048564;28;20456;-84
2021/08/11 00:04:53;;;;;;;7.87;5.67;;;17.50;62.20;;;16.62;68.10;98173.00;5046859;28;20761;-84
2021/08/11 00:07:22;;;;;;;6.90;5.23;;;17.40;62.40;;;16.54;68.87;98176.97;5046955;28;20494;-84
2021/08/11 00:09:50;;;;;;;6.67;5.97;;;17.30;63.10;;;16.50;69.11;98183.16;5046461;28;20507;-85
2021/08/11 00:12:17;;;;;;;5.83;5.30;;;17.30;63.30;;;16.41;70.68;98182.78;5048607;28;20446;-85
2021/08/11 00:14:44;;;;;;;6.10;5.20;;;17.20;64.50;;;15.85;70.25;98112.63;5031247;28;20647;-85
2021/08/11 00:17:11;;;;;;;8.33;5.43;;;17.10;64.10;;;16.24;70.72;98185.50;5049248;28;21171;-85
2021/08/11 00:19:40;;;;;;;5.80;5.20;;;17.10;64.70;;;16.16;70.95;98181.28;5049687;28;20507;-85
2021/08/11 00:22:07;;;;;;;5.80;5.20;;;17.00;65.20;;;16.23;70.42;98167.50;5051369;28;20448;-86
2021/08/11 00:24:35;;;;;;;5.80;5.30;;;17.00;65.30;;;16.39;69.95;98201.28;5047174;28;20556;-86
2021/08/11 00:27:03;;;;;;;7.53;5.37;;;17.10;65.10;;;16.45;69.68;98202.16;5048214;28;20446;-85
2021/08/11 00:29:30;;;;;;;6.17;5.60;;;17.10;65.10;;;16.35;70.20;98202.84;5050927;28;20496;-86
2021/08/11 00:31:57;;;;;;;5.50;5.00;;;17.10;65.10;;;16.21;70.43;98186.00;5031771;28;20556;-87
2021/08/11 00:34:24;;;;;;;8.67;6.10;;;17.00;65.20;;;16.19;70.69;98208.03;5044144;28;20512;-83
2021/08/11 00:36:51;;;;;;;6.93;5.73;;;17.00;65.60;;;15.44;71.92;98101.88;5048253;28;20489;-85
2021/08/11 00:39:18;;;;;;;6.00;5.40;;;16.90;66.10;;;15.75;72.13;98170.50;5029510;28;21138;-86
2021/08/11 00:41:47;;;;;;;7.73;5.47;;;16.80;66.60;;;15.85;72.67;98219.72;5028894;28;20452;-86
2021/08/11 00:44:15;;;;;;;6.80;5.80;;;16.70;67.10;;;15.64;73.21;98185.84;5031987;28;20462;-86
2021/08/11 00:46:45;;;;;;;7.47;6.37;;;16.60;68.10;;;15.76;74.12;98214.88;5041217;28;20466;-85
2021/08/11 00:49:15;;;;;;;8.73;5.93;;;16.50;69.50;;;15.69;73.78;98206.88;5049180;28;20483;-86
2021/08/11 00:51:44;;;;;;;6.47;5.83;;;16.50;70.10;;;15.66;74.15;98204.63;5048296;28;23006;-86
2021/08/11 00:54:12;;;;;;;6.97;6.20;;;16.40;70.90;;;15.59;73.18;98188.44;5048867;28;20451;-86
2021/08/11 00:56:42;;;;;;;7.43;5.40;;;16.50;70.80;;;15.71;73.74;98210.19;5064980;28;20579;-85
2021/08/11 00:59:12;;;;;;;6.57;5.87;;;16.50;71.10;;;15.62;74.84;98200.75;5049928;28;20441;-86
2021/08/11 01:01:41;;;;;;;6.33;5.70;;;16.40;71.90;;;15.58;74.50;98206.69;5069178;28;20454;-85
2021/08/11 01:04:12;;;;;;;7.10;6.40;;;16.40;72.70;;;15.52;75.64;98196.75;5070250;28;20582;-86
2021/08/11 01:06:40;;;;;;;6.93;6.33;;;16.40;73.70;;;15.55;75.46;98193.59;5053686;28;20465;-86
2021/08/11 01:09:07;;;;;;;6.87;5.97;;;16.40;74.20;;;15.50;75.24;98177.13;5024982;28;20453;-85
2021/08/11 01:11:35;;;;;;;8.00;5.83;;;16.40;75.10;;;15.66;75.34;98191.03;5047109;28;20445;-85
2021/08/11 01:14:03;;;;;;;9.27;6.27;;;16.50;75.70;;;15.70;75.70;98193.03;5047391;28;20446;-86
2021/08/11 01:16:34;;;;;;;6.40;5.90;;;16.50;76.20;;;15.75;75.60;98196.91;5047324;28;20548;-84
2021/08/11 01:19:01;;;;;;;7.87;7.07;;;16.60;76.40;;;15.72;75.86;98192.78;5049665;28;20450;-85
2021/08/11 01:21:33;;;;;;;9.27;6.57;;;16.60;76.70;;;15.69;76.21;98207.72;5052101;28;20469;-85
2021/08/11 01:24:09;;;;;;;7.47;6.77;;;16.50;76.90;;;15.23;76.49;98134.16;5046883;28;20485;-85
2021/08/11 01:27:06;;;;;;;8.57;6.70;;;16.50;77.70;;;15.60;76.45;98187.38;5048567;28;20579;-85
2021/08/11 01:29:51;;;;;;;7.40;6.60;;;16.50;78.00;;;15.58;76.95;98190.38;5036092;28;20523;-86
2021/08/11 01:32:33;;;;;;;10.27;6.37;;;16.50;78.50;;;14.89;77.01;98101.41;5041218;28;20786;-85
2021/08/11 01:35:02;;;;;;;7.50;6.80;;;16.40;79.50;;;15.48;77.33;98186.63;5069880;28;20509;-86
2021/08/11 01:37:30;;;;;;;7.40;6.70;;;16.40;80.10;;;15.39;77.34;98191.59;5074523;28;20491;-86
2021/08/11 01:40:01;;;;;;;7.20;6.50;;;16.30;80.10;;;15.29;77.57;98187.63;5053021;28;21203;-85
2021/08/11 01:42:33;;;;;;;6.73;6.03;;;16.30;80.80;;;15.26;78.18;98199.00;5052896;28;20449;-86
2021/08/11 01:45:11;;;;;;;7.43;6.73;;;16.20;81.60;;;14.86;78.35;98154.41;5036208;28;20460;-85
2021/08/11 01:47:44;;;;;;;7.57;6.83;;;16.10;81.90;;;15.11;78.41;98202.25;5052419;28;20463;-86
2021/08/11 01:50:17;;;;;;;8.07;7.27;;;16.00;82.60;;;14.82;78.46;98160.56;5031434;28;20541;-86
2021/08/11 01:52:46;;;;;;;7.43;6.73;;;16.00;83.30;;;14.88;79.19;98197.66;5049786;28;20457;-86
2021/08/11 01:55:15;;;;;;;9.80;7.03;;;15.90;84.00;;;14.81;79.44;98175.22;5032124;28;20465;-85
2021/08/11 01:57:47;;;;;;;8.27;7.33;;;15.80;84.70;;;14.60;79.29;98155.69;5030222;28;20485;-85
2021/08/11 02:00:16;;;;;;;8.80;7.90;;;15.80;85.60;;;14.95;79.55;98214.72;5047642;28;20460;-86
2021/08/11 02:02:47;;;;;;;8.03;7.10;;;15.70;85.90;;;14.91;79.36;98202.63;5032214;28;20464;-86
2021/08/11 02:05:17;;;;;;;10.60;7.33;;;15.70;86.50;;;14.90;79.67;98211.84;5048908;28;20476;-86
2021/08/11 02:07:45;;;;;;;8.37;7.57;;;15.70;86.80;;;14.90;79.14;98211.84;5049712;28;20465;-85
2021/08/11 02:10:15;;;;;;;7.30;6.60;;;15.70;86.30;;;14.92;79.55;98209.72;5064055;28;20485;-86
2021/08/11 02:12:42;;;;;;;9.00;7.43;;;15.70;86.80;;;14.91;79.39;98216.22;5073325;28;20474;-86
2021/08/11 02:15:11;;;;;;;7.67;6.87;;;15.70;86.40;;;14.55;79.45;98150.16;5073262;28;20576;-86
2021/08/11 02:17:39;;;;;;;10.40;7.57;;;15.80;86.50;;;15.04;79.19;98217.03;5052543;28;20461;-85
2021/08/11 02:20:10;;;;;;;11.63;7.33;;;15.80;86.40;;;15.05;79.30;98221.41;5048703;28;20445;-86
2021/08/11 02:22:39;;;;;;;7.53;6.80;;;15.90;86.20;;;14.56;79.30;98141.78;5050396;28;20461;-86
2021/08/11 02:25:11;;;;;;;9.80;7.13;;;15.90;86.10;;;14.95;79.35;98217.44;5061028;28;20933;-86
2021/08/11 02:27:48;;;;;;;9.70;7.30;;;15.90;86.70;;;14.91;79.91;98197.19;5054436;28;20459;-86
2021/08/11 02:30:20;;;;;;;9.43;6.97;;;15.90;87.60;;;14.98;80.03;98207.94;5048723;28;20473;-86
2021/08/11 02:32:54;;;;;;;8.13;7.20;;;15.80;87.00;;;14.97;80.37;98200.84;5032072;28;20990;-86
2021/08/11 02:35:28;;;;;;;8.33;7.50;;;15.80;87.80;;;15.02;79.62;98204.50;5030952;28;20456;-86
2021/08/11 02:38:03;;;;;;;7.37;6.63;;;15.80;87.60;;;14.98;79.77;98192.47;5055618;28;20585;-86
2021/08/11 02:40:36;;;;;;;8.27;7.47;;;15.90;87.60;;;15.07;79.73;98206.50;5050486;28;20465;-86
2021/08/11 02:43:08;;;;;;;8.73;7.10;;;15.90;87.40;;;15.08;80.12;98213.59;5049740;28;20452;-85
2021/08/11 02:45:39;;;;;;;8.13;7.33;;;15.90;88.10;;;15.10;79.83;98226.97;5050169;28;20517;-86
2021/08/11 02:48:10;;;;;;;8.13;7.20;;;15.90;87.90;;;14.93;79.51;98186.06;5032794;28;20442;-86
2021/08/11 02:50:40;;;;;;;8.40;6.93;;;16.00;87.50;;;15.07;80.00;98208.41;5031147;28;20449;-86
2021/08/11 02:53:11;;;;;;;7.17;6.53;;;16.00;87.70;;;15.15;79.74;98218.91;5033222;28;20460;-86
2021/08/11 02:55:38;;;;;;;10.00;7.90;;;16.10;87.70;;;15.17;79.87;98216.78;5046359;28;20446;-85
2021/08/11 02:58:06;;;;;;;8.90;7.47;;;16.10;87.70;;;15.38;79.29;98217.19;5048025;28;20974;-86
2021/08/11 03:00:34;;;;;;;7.53;6.83;;;16.20;87.50;;;15.39;78.95;98203.34;5047835;28;20517;-86
2021/08/11 03:03:03;;;;;;;7.77;7.00;;;16.30;86.70;;;15.18;78.50;98180.31;5028426;28;20450;-86
2021/08/11 03:05:32;;;;;;;8.57;6.80;;;16.30;86.50;;;15.49;78.18;98224.47;5046169;28;20549;-86
2021/08/11 03:08:01;;;;;;;7.80;7.10;;;16.40;86.30;;;15.46;78.41;98207.81;5045736;28;20470;-86
2021/08/11 03:10:30;;;;;;;7.00;6.40;;;16.40;86.00;;;15.56;78.31;98217.00;5047866;28;21072;-86
2021/08/11 03:12:58;;;;;;;7.10;6.50;;;16.40;85.80;;;15.57;77.74;98218.66;5048861;28;20442;-86
2021/08/11 03:15:28;;;;;;;8.90;7.23;;;16.40;85.20;;;15.62;77.83;98217.94;5048241;28;21058;-86
2021/08/11 03:17:55;;;;;;;6.93;6.33;;;16.50;85.30;;;15.46;78.14;98208.63;5049419;28;20461;-85
2021/08/11 03:20:23;;;;;;;7.40;6.50;;;16.50;85.40;;;15.42;78.03;98199.31;5030680;28;20536;-86
2021/08/11 03:22:51;;;;;;;6.40;5.80;;;16.40;85.00;;;15.52;78.30;98221.28;5048554;28;20446;-86
2021/08/11 03:25:18;;;;;;;6.83;6.17;;;16.40;85.10;;;15.52;78.40;98226.72;5044501;28;20451;-86
2021/08/11 03:27:47;;;;;;;8.73;6.37;;;16.40;85.20;;;15.51;78.12;98227.78;5015557;28;20469;-86
2021/08/11 03:30:15;;;;;;;6.67;6.07;;;16.50;85.40;;;15.53;77.99;98233.81;5045953;28;20577;-86
2021/08/11 03:32:43;;;;;;;7.00;5.93;;;16.50;85.60;;;15.50;78.21;98230.78;5045837;28;20540;-86
2021/08/11 03:35:12;;;;;;;8.03;6.47;;;16.40;85.40;;;15.51;78.18;98224.25;5046148;28;20809;-86
2021/08/11 03:37:39;;;;;;;7.10;6.00;;;16.40;85.50;;;15.54;78.61;98226.50;5047383;28;20457;-86
2021/08/11 03:40:08;;;;;;;6.87;6.27;;;16.40;85.70;;;15.58;78.25;98212.16;5028581;28;20461;-85
2021/08/11 03:42:35;;;;;;;8.53;6.60;;;16.40;85.70;;;15.57;78.13;98207.78;5013671;28;20459;-85
2021/08/11 03:45:06;;;;;;;7.27;6.67;;;16.50;85.50;;;15.65;77.89;98214.72;5047851;28;21251;-86
2021/08/11 03:47:33;;;;;;;8.17;7.20;;;16.50;85.30;;;15.38;77.75;98168.19;5046624;28;20508;-85
2021/08/11 03:50:00;;;;;;;7.67;6.97;;;16.50;85.20;;;15.66;77.82;98204.63;5052845;28;20454;-86
2021/08/11 03:52:27;;;;;;;7.50;6.27;;;16.50;85.10;;;15.72;77.36;98215.38;5049839;28;20449;-86
2021/08/11 03:54:54;;;;;;;7.57;6.80;;;16.60;84.70;;;15.69;77.39;98201.41;5031865;28;20961;-86
2021/08/11 03:57:21;;;;;;;7.30;6.60;;;16.60;84.60;;;15.73;77.19;98213.50;5048260;28;20549;-86
2021/08/11 03:59:48;;;;;;;7.80;7.00;;;16.60;84.10;;;15.67;77.13;98198.97;5048820;28;20453;-86
2021/08/11 04:02:17;;;;;;;7.73;6.93;;;16.70;84.20;;;15.81;77.13;98224.00;5034890;28;20452;-86
2021/08/11 04:04:44;;;;;;;7.27;6.60;;;16.60;83.90;;;15.74;76.98;98212.44;5052245;28;20446;-86
2021/08/11 04:07:11;;;;;;;7.73;6.00;;;16.60;83.90;;;15.89;76.78;98216.50;5049636;28;20573;-86
2021/08/11 04:09:38;;;;;;;8.30;7.50;;;16.70;84.00;;;15.88;76.04;98221.13;5049391;28;20457;-86
2021/08/11 04:12:07;;;;;;;7.37;6.67;;;16.70;82.70;;;15.88;76.18;98236.66;5047922;28;20464;-86
2021/08/11 04:14:34;;;;;;;12.13;7.17;;;16.70;82.80;;;15.78;76.69;98220.94;5042806;28;20456;-86
2021/08/11 04:17:02;;;;;;;8.00;6.90;;;16.70;82.80;;;15.88;76.26;98242.09;5029101;28;20552;-86
2021/08/11 04:19:31;;;;;;;9.50;7.00;;;16.70;82.60;;;15.88;75.98;98236.66;5048830;28;20454;-86
2021/08/11 04:21:58;;;;;;;7.70;6.90;;;16.70;82.50;;;15.89;76.45;98232.84;5045065;28;20525;-86
2021/08/11 04:24:27;;;;;;;8.53;7.50;;;16.80;82.60;;;15.89;76.05;98243.75;5037549;28;20460;-86
2021/08/11 04:26:55;;;;;;;8.90;7.30;;;16.70;82.50;;;15.69;76.10;98223.22;5056614;28;20473;-86
2021/08/11 04:29:24;;;;;;;7.73;6.60;;;16.70;82.50;;;15.78;76.27;98226.41;5054301;28;20473;-86
2021/08/11 04:31:51;;;;;;;7.60;6.90;;;16.80;82.60;;;15.97;75.77;98255.09;5056650;28;21050;-87
2021/08/11 04:34:18;;;;;;;8.30;7.00;;;16.80;82.20;;;15.98;76.00;98262.22;5066581;28;20457;-86
2021/08/11 04:36:46;;;;;;;8.10;7.40;;;16.80;82.00;;;16.04;76.01;98263.13;5067688;28;20454;-86
2021/08/11 04:39:13;;;;;;;8.40;7.60;;;16.80;82.10;;;16.08;75.88;98256.09;5060647;28;20451;-86
2021/08/11 04:41:41;;;;;;;8.50;7.80;;;16.90;81.80;;;16.13;75.67;98255.38;5063429;28;20457;-86
2021/08/11 04:44:10;;;;;;;8.53;6.60;;;16.90;81.60;;;16.18;75.25;98254.66;5060813;28;20957;-87
2021/08/11 04:46:38;;;;;;;8.80;7.90;;;17.00;81.40;;;16.08;75.19;98226.13;5072983;28;20445;-87
2021/08/11 04:49:06;;;;;;;7.87;7.03;;;17.00;81.20;;;16.33;74.76;98254.06;5068406;28;20476;-87
2021/08/11 04:51:33;;;;;;;8.70;6.80;;;17.10;81.10;;;16.32;74.60;98253.25;5054574;28;20433;-87
2021/08/11 04:54:01;;;;;;;10.57;7.40;;;17.20;80.60;;;16.28;74.75;98241.16;5068252;28;20537;-87
2021/08/11 04:56:29;;;;;;;8.40;6.33;;;17.20;80.50;;;16.34;74.76;98252.97;5066754;28;20434;-86
2021/08/11 04:58:56;;;;;;;8.57;6.80;;;17.20;80.60;;;16.31;74.96;98248.03;5054421;28;20544;-86
2021/08/11 05:01:23;;;;;;;8.33;7.60;;;17.20;80.70;;;16.37;74.52;98245.13;5049040;28;20544;-87
2021/08/11 05:03:50;;;;;;;10.40;7.70;;;17.30;80.50;;;16.48;74.38;98264.41;5031926;28;20465;-87
2021/08/11 05:06:19;;;;;;;8.83;7.40;;;17.30;79.80;;;16.45;73.67;98252.09;5046701;28;20465;-86
2021/08/11 05:08:46;;;;;;;8.40;7.60;;;17.40;79.50;;;16.52;73.71;98246.47;5047111;28;20458;-86
2021/08/11 05:11:16;;;;;;;8.40;7.60;;;17.50;79.20;;;16.64;74.40;98255.38;5048036;28;20457;-86
2021/08/11 05:13:46;;;;;;;8.13;7.30;;;17.50;79.70;;;16.75;73.29;98259.09;5047076;28;20961;-87
2021/08/11 05:16:15;;;;;;;9.40;6.60;;;17.60;79.10;;;16.77;72.81;98237.84;5048004;28;20453;-86
2021/08/11 05:18:42;;;;;;;7.93;7.20;;;17.80;78.90;;;16.84;72.66;98226.75;5028448;28;20536;-86
2021/08/11 05:21:09;;;;;;;11.50;8.10;;;17.90;78.30;;;17.16;71.80;98264.31;5029903;28;20557;-86
2021/08/11 05:23:37;;;;;;;9.90;8.20;;;18.00;76.80;;;17.17;71.76;98241.41;5045851;28;21177;-86
2021/08/11 05:26:04;;;;;;;8.80;7.80;;;18.20;76.40;;;17.32;71.82;98264.53;5029457;28;20448;-86
2021/08/11 05:28:32;;;;;;;8.40;7.60;;;18.30;76.00;;;17.48;71.28;98258.16;5030261;28;20456;-85
2021/08/11 05:31:00;;;;;;;9.67;7.30;;;18.50;75.30;;;17.54;70.27;98250.88;5045365;28;20473;-85
2021/08/11 05:33:27;;;;;;;10.93;8.13;;;18.80;74.20;;;17.81;69.71;98258.25;5047658;28;20563;-87
2021/08/11 05:35:54;;;;;;;7.90;7.07;;;19.10;72.50;;;17.93;68.92;98247.16;5029388;28;20470;-86
2021/08/11 05:38:22;;;;;;;8.27;7.00;;;19.30;71.80;;;18.12;68.55;98259.44;5047972;28;20466;-86
2021/08/11 05:40:49;;;;;;;7.73;6.90;;;19.40;70.30;;;17.99;67.43;98195.03;5046903;28;20454;-86
2021/08/11 05:43:17;;;;;;;8.53;6.30;;;19.60;69.30;;;18.40;67.08;98257.47;5046243;28;20544;-87
2021/08/11 05:45:46;;;;;;;14.70;7.40;;;19.90;68.60;;;18.76;66.26;98267.06;5029172;28;20499;-87
2021/08/11 05:48:15;;;;;;;7.73;6.97;;;20.40;67.10;;;19.05;64.50;98247.56;5032293;28;21065;-86
2021/08/11 05:50:42;;;;;;;7.50;6.70;;;21.10;65.20;;;19.32;63.19;98233.72;5046109;28;20458;-86
2021/08/11 05:53:10;;;;;;;8.27;7.33;;;21.60;63.50;;;19.82;62.57;98272.53;5029071;28;20457;-86
2021/08/11 05:55:37;;;;;;;8.90;7.83;;;21.80;62.80;;;19.94;62.10;98274.19;5045932;28;20841;-86
2021/08/11 05:58:04;;;;;;;6.70;6.10;;;22.00;62.10;;;20.02;61.62;98279.16;5047740;28;20484;-87
2021/08/11 06:00:36;;;;;;;10.10;7.60;;;21.90;62.00;;;19.50;62.93;98268.03;5045846;28;20457;-87
2021/08/11 06:03:05;;;;;;;12.30;7.10;;;21.40;62.40;;;19.45;63.65;98289.91;5052362;28;20565;-86
2021/08/11 06:05:35;;;;;;;8.60;6.70;;;20.80;63.10;;;19.17;64.61;98280.19;5050857;28;20856;-85
2021/08/11 06:08:03;;;;;;;8.67;6.50;;;20.40;64.10;;;19.28;64.60;98297.50;5029038;28;21016;-86
2021/08/11 06:10:30;;;;;;;8.20;7.20;;;20.40;64.60;;;19.15;64.42;98272.22;5047897;28;20537;-86
2021/08/11 06:12:57;;;;;;;8.47;7.40;;;20.20;64.80;;;19.18;64.67;98293.59;5047343;28;20532;-87
2021/08/11 06:15:28;;;;;;;10.50;7.67;;;20.20;65.00;;;19.18;64.54;98288.13;5050269;28;20446;-86
2021/08/11 06:17:55;;;;;;;11.53;7.60;;;20.30;64.80;;;19.02;64.45;98257.13;5048777;28;20473;-85
2021/08/11 06:20:25;;;;;;;7.57;6.80;;;20.40;64.80;;;19.37;63.82;98285.75;5048392;28;20608;-86
2021/08/11 06:22:52;;;;;;;10.00;7.13;;;20.50;64.60;;;19.57;63.84;98305.31;5048657;28;20492;-85
2021/08/11 06:25:20;;;;;;;8.57;7.40;;;20.60;64.80;;;19.61;63.74;98298.19;5053200;28;20540;-86
2021/08/11 06:27:47;;;;;;;10.00;7.30;;;20.70;64.40;;;19.65;63.83;98291.09;5054235;28;20465;-85
2021/08/11 06:30:14;;;;;;;8.90;7.60;;;20.90;64.60;;;19.50;64.21;98278.16;5030155;28;20471;-85
2021/08/11 06:32:43;;;;;;;14.63;7.23;;;20.90;64.30;;;19.37;64.10;98268.53;5014430;28;20463;-86
2021/08/11 06:35:11;;;;;;;11.13;7.27;;;20.80;64.20;;;19.39;63.58;98269.06;5013466;28;20505;-86
2021/08/11 06:37:49;;;;;;;8.43;6.70;;;20.50;64.10;;;19.36;64.15;98284.13;5043771;28;20485;-87
2021/08/11 06:40:19;;;;;;;7.80;7.10;;;20.30;64.80;;;19.42;64.18;98293.19;5047614;28;20450;-87
2021/08/11 06:42:47;;;;;;;9.00;7.23;;;20.40;64.90;;;19.52;63.58;98298.72;5030482;28;20501;-86
2021/08/11 06:45:14;;;;;;;10.23;7.30;;;20.30;64.70;;;19.39;63.63;98304.69;5047178;28;20501;-87
2021/08/11 06:47:49;;;;;;;9.60;8.57;;;20.40;64.50;;;19.39;63.34;98275.38;5045144;28;20562;-86
2021/08/11 06:50:16;;;;;;;10.63;7.93;;;20.50;64.40;;;19.53;62.18;98239.25;5036682;28;20486;-86
2021/08/11 06:52:44;;;;;;;11.17;8.20;;;20.80;64.40;;;19.78;61.19;98224.78;5038404;28;20458;-86
2021/08/11 06:55:14;;;;;;;9.80;8.07;;;21.00;63.60;;;20.67;60.19;98295.13;5018053;28;20454;-87
2021/08/11 06:57:44;;;;;;;10.73;9.20;;;21.40;63.60;;;20.81;58.71;98239.69;5044147;28;20501;-86
2021/08/11 07:00:15;;;;;;;17.90;8.10;;;22.00;62.80;;;21.06;57.47;98233.31;5039033;28;20453;-85
2021/08/11 07:02:43;;;;;;;9.30;7.50;;;22.30;61.60;;;21.82;56.85;98286.63;5018473;28;20455;-86
2021/08/11 07:05:12;;;;;;;10.47;8.13;;;22.70;61.50;;;21.78;56.62;98281.69;5019266;28;20468;-85
2021/08/11 07:07:39;;;;;;;8.40;6.80;;;22.80;60.90;;;21.94;56.41;98289.88;5047775;28;20475;-85
2021/08/11 07:10:08;;;;;;;9.33;7.33;;;22.90;60.40;;;21.92;55.64;98294.84;5017734;28;20450;-83
2021/08/11 07:12:37;;;;;;;8.43;7.63;;;22.80;60.00;;;22.05;55.17;98277.69;5037780;28;20446;-85
2021/08/11 07:15:06;;;;;;;9.80;7.32;;;23.00;60.10;;;22.18;54.92;98297.41;5032921;28;20461;-85
2021/08/11 07:17:37;;;;;;;9.40;7.80;;;23.20;59.50;;;22.35;54.74;98295.09;5032429;28;20206;-85
2021/08/11 07:20:10;;;;;;;9.33;7.83;;;23.30;59.50;;;22.15;54.78;98259.47;5028974;28;20793;-85
2021/08/11 07:22:37;;;;;;;8.90;7.53;;;23.40;59.60;;;22.27;54.62;98279.19;5012497;28;20634;-85
2021/08/11 07:25:05;;;;;;;11.80;7.20;;;23.30;59.20;;;22.47;54.48;98300.28;5021429;28;20457;-80
2021/08/11 07:27:32;;;;;;;7.60;6.90;;;23.40;59.40;;;22.55;54.26;98307.09;5026731;28;21036;-81
2021/08/11 07:30:01;;;;;;;8.87;7.90;;;23.40;59.30;;;22.38;54.92;98296.44;5022886;28;20467;-82
2021/08/11 07:32:28;;;;;;;10.03;6.73;;;23.40;59.20;;;22.53;53.85;98300.22;5026962;28;20459;-80
2021/08/11 07:34:55;;;;;;;8.63;7.70;;;23.40;58.80;;;22.80;52.95;98285.94;5021571;28;20439;-81
2021/08/11 07:37:22;;;;;;;7.47;6.77;;;23.70;59.00;;;23.04;52.22;98291.50;5022761;28;21403;-79
2021/08/11 07:39:49;;;;;;;8.80;7.40;;;23.90;58.20;;;23.15;51.75;98292.22;5026135;28;20978;-84
2021/08/11 07:42:16;;;;;;;9.30;7.00;;;24.10;57.90;;;23.62;51.41;98294.47;5025309;28;20541;-81
2021/08/11 07:44:43;;;;;;;8.03;6.60;;;24.40;57.90;;;23.42;51.15;98288.06;5023019;28;20454;-80
2021/08/11 07:47:11;;;;;;;9.87;6.60;;;24.40;57.60;;;23.42;51.19;98274.28;5006123;28;20553;-81
2021/08/11 07:49:39;;;;;;;11.50;7.67;;;24.40;57.40;;;22.78;52.45;98293.66;5019589;28;20474;-80
2021/08/11 07:52:06;;;;;;;7.60;6.87;;;24.10;57.20;;;22.80;52.48;98302.47;5021879;28;20447;-79
2021/08/11 07:54:34;;;;;;;9.50;7.00;;;23.90;57.40;;;23.34;51.92;98299.75;5020956;28;20466;-80
2021/08/11 07:57:01;;;;;;;9.90;7.53;;;24.00;57.60;;;23.54;50.68;98297.88;5023008;28;20458;-84
2021/08/11 07:59:28;;;;;;;7.73;6.50;;;24.20;57.60;;;23.92;50.12;98292.44;5020630;28;20453;-81
2021/08/11 08:01:55;;;;;;;7.83;6.97;;;24.70;57.50;;;24.42;48.34;98299.44;5023517;28;20461;-80
2021/08/11 08:04:23;;;;;;;9.13;6.60;;;25.10;56.70;;;24.58;48.50;98303.59;5023774;28;20449;-86
2021/08/11 08:06:50;;;;;;;8.23;6.53;;;25.40;56.50;;;24.78;47.67;98285.06;5031577;28;20498;-82
2021/08/11 08:09:17;;;;;;;10.03;7.07;;;25.60;56.30;;;24.72;47.69;98306.44;5027157;28;20817;-79
2021/08/11 08:11:44;;;;;;;9.10;6.10;;;25.80;55.80;;;24.23;48.18;98297.53;5036300;28;20478;-85
2021/08/11 08:14:11;;;;;;;7.20;6.50;;;25.50;55.40;;;24.51;47.29;98300.44;5030128;28;20965;-80
2021/08/11 08:16:38;;;;;;;9.00;6.77;;;25.50;55.30;;;24.29;47.97;98301.03;5033399;28;20475;-81
2021/08/11 08:19:05;;;;;;;8.73;6.30;;;25.30;55.20;;;24.71;47.24;98296.47;5031138;28;20882;-79
2021/08/11 08:21:33;;;;;;;8.00;6.37;;;25.60;55.40;;;24.52;48.02;98293.78;5032369;28;20533;-81
2021/08/11 08:24:00;;;;;;;8.87;6.97;;;25.60;55.50;;;24.65;48.53;98302.41;5036327;28;20497;-81
2021/08/11 08:26:27;;;;;;;6.90;6.17;;;25.60;55.80;;;24.85;47.65;98302.09;5032938;28;20533;-81
2021/08/11 08:28:54;;;;;;;8.03;6.47;;;25.60;55.60;;;24.72;48.42;98305.59;5032529;28;20498;-84
2021/08/11 08:31:21;;;;;;;8.50;6.77;;;25.60;55.70;;;24.53;48.64;98306.47;5035384;28;20534;-82
2021/08/11 08:33:48;;;;;;;9.10;7.10;;;25.60;55.70;;;24.49;48.19;98288.84;5037459;28;20516;-80
2021/08/11 08:36:15;;;;;;;9.57;6.60;;;25.60;55.60;;;24.67;48.15;98289.94;5047425;28;20490;-82
2021/08/11 08:38:44;;;;;;;9.10;6.67;;;25.40;55.80;;;24.78;47.64;98312.69;5043837;28;20470;-81
2021/08/11 08:41:12;;;;;;;10.07;7.00;;;25.50;55.80;;;24.37;49.05;98296.78;5045620;28;20526;-80
2021/08/11 08:43:39;;;;;;;7.87;7.07;;;25.20;55.90;;;24.39;48.70;98308.34;5039612;28;20489;-82
2021/08/11 08:46:07;;;;;;;8.63;6.90;;;24.90;56.10;;;24.30;49.56;98305.44;5038724;28;20459;-81
2021/08/11 08:48:34;;;;;;;11.03;5.80;;;25.00;56.20;;;24.14;49.84;98282.75;5038461;28;20462;-81
2021/08/11 08:51:02;;;;;;;8.97;7.20;;;25.10;56.50;;;23.86;50.31;98304.63;5038030;28;20494;-81
2021/08/11 08:53:30;;;;;;;8.17;6.30;;;25.00;56.00;;;23.85;50.90;98309.34;5035158;28;20443;-82
2021/08/11 08:55:58;;;;;;;6.30;5.70;;;24.90;56.60;;;23.99;50.19;98309.41;5031265;28;20537;-81
2021/08/11 08:58:25;;;;;;;7.80;6.40;;;24.70;56.40;;;24.10;50.17;98301.03;5031708;28;20801;-81
2021/08/11 09:00:52;;;;;;;9.10;6.10;;;24.80;56.60;;;24.46;49.08;98312.38;5034520;28;20584;-80
2021/08/11 09:03:19;;;;;;;6.70;5.63;;;24.90;56.40;;;24.60;49.53;98306.88;5036743;28;20533;-80
2021/08/11 09:05:47;;;;;;;10.10;5.70;;;25.50;56.50;;;24.93;47.75;98305.25;5033722;28;20450;-80
2021/08/11 09:08:14;;;;;;;8.30;5.90;;;25.60;55.80;;;24.96;47.19;98310.22;5034038;28;20482;-80
2021/08/11 09:10:41;;;;;;;6.80;6.10;;;25.80;55.30;;;24.65;47.29;98302.41;5033473;28;20450;-81
2021/08/11 09:13:19;;;;;;;6.87;5.70;;;25.70;55.00;;;25.00;46.85;98308.47;5016996;28;20458;-81
2021/08/11 09:15:48;;;;;;;8.07;6.03;;;25.90;54.70;;;24.90;46.72;98304.75;5033333;28;20466;-82
2021/08/11 09:18:18;;;;;;;8.00;5.60;;;26.00;54.60;;;25.12;46.91;98314.34;5038729;28;20486;-82
2021/08/11 09:20:48;;;;;;;7.23;5.90;;;26.00;55.10;;;25.42;46.23;98309.34;5036081;28;20455;-80
2021/08/11 09:23:16;;;;;;;9.00;5.70;;;26.40;54.60;;;25.79;44.25;98316.91;5012264;28;20467;-80
2021/08/11 09:26:01;;;;;;;7.00;5.40;;;26.10;54.00;;;25.38;45.09;98293.66;5033422;28;20450;-86
2021/08/11 09:28:33;;;;;;;6.50;5.40;;;26.20;54.30;;;25.32;45.41;98292.94;5034425;28;20471;-85
2021/08/11 09:31:00;;;;;;;6.80;5.23;;;26.20;54.20;;;24.67;46.90;98319.50;5035344;28;20474;-85
2021/08/11 09:33:29;;;;;;;9.30;6.20;;;26.00;54.00;;;24.66;47.09;98326.16;5037838;28;20532;-85
2021/08/11 09:36:13;;;;;;;6.67;6.00;;;25.70;54.30;;;24.32;47.66;98320.56;5036483;28;20262;-85
2021/08/11 09:38:55;;;;;;;6.57;5.93;;;25.30;54.40;;;24.45;47.43;98315.41;5027247;28;20464;-84
2021/08/11 09:41:25;;;;;;;8.43;7.03;;;25.40;54.40;;;24.72;46.75;98316.66;5031201;28;20481;-86
2021/08/11 09:44:09;;;;;;;6.30;5.73;;;25.50;54.50;;;25.12;45.60;98306.03;5030747;28;20586;-85
2021/08/11 09:46:41;;;;;;;7.07;5.27;;;25.90;54.40;;;24.48;47.32;98309.28;5035093;28;20454;-87
2021/08/11 09:49:17;;;;;;;5.33;4.87;;;25.60;54.00;;;24.36;48.16;98300.66;5035711;28;20470;-85
2021/08/11 09:52:03;;;;;;;12.60;5.30;;;25.40;54.90;;;24.48;47.72;98303.75;5038499;28;20472;-83
2021/08/11 09:54:32;;;;;;;9.27;5.50;;;25.40;54.80;;;24.98;47.09;98294.13;5042028;28;20446;-82
2021/08/11 09:57:00;;;;;;;7.13;5.27;;;25.60;55.00;;;24.90;46.84;98310.28;5047135;28;20462;-84
2021/08/11 09:59:29;;;;;;;7.63;5.37;;;25.80;54.70;;;25.00;47.38;98292.69;5047792;28;20541;-84
2021/08/11 10:02:17;;;;;;;8.00;5.70;;;25.90;54.80;;;25.14;46.69;98312.06;5042519;28;20445;-84
2021/08/11 10:04:47;;;;;;;5.40;4.67;;;25.90;54.60;;;24.82;47.20;98308.22;5043764;28;20516;-83
2021/08/11 10:07:16;;;;;;;5.60;4.87;;;25.70;54.60;;;25.04;46.77;98317.78;5040425;28;20457;-83
2021/08/11 10:10:01;;;;;;;4.90;4.40;;;25.80;54.50;;;24.32;47.37;98326.09;5012738;28;20625;-85
2021/08/11 10:12:30;;;;;;;4.97;4.47;;;25.60;54.30;;;23.64;49.08;98319.81;5028455;28;20559;-85
2021/08/11 10:15:01;;;;;;;4.60;4.30;;;24.90;54.50;;;23.43;49.32;98295.25;5031328;28;20550;-84
2021/08/11 10:17:34;;;;;;;5.33;4.23;;;24.60;54.80;;;23.85;48.81;98314.88;5031976;28;20457;-83
2021/08/11 10:20:04;;;;;;;6.77;4.53;;;24.60;54.90;;;23.81;48.97;98305.53;5029301;28;20450;-83
2021/08/11 10:22:32;;;;;;;4.63;4.07;;;24.70;55.00;;;23.79;49.47;98306.94;5030883;28;20462;-83
2021/08/11 10:25:00;;;;;;;5.67;4.07;;;24.70;55.20;;;24.21;48.65;98315.50;5030510;28;20450;-85
2021/08/11 10:27:28;;;;;;;19.07;9.83;;;24.90;55.20;;;24.29;48.87;98312.88;5030459;28;20565;-85